sensor_id;sensor_type;location;lat;lon;timestamp;P1;durP1;ratioP1;P2;durP2;ratioP2
65315;SDS011;51920;53.952;10.292;2022-10-31T00:00:55;25.42;;;14.23;;
65315;SDS011;51920;53.952;10.292;2022-10-31T00:03:21;26.93;;;14.93;;
65315;SDS011;51920;53.952;10.292;2022-10-31T00:05:47;25.77;;;14.17;;
65315;SDS011;51920;53.952;10.292;2022-10-31T00:08:13;25.92;;;14.70;;
65315;SDS011;51920;53.952;10.292;2022-10-31T00:10:42;26.45;;;15.63;;
65315;SDS011;51920;53.952;10.292;2022-10-31T00:13:09;29.98;;;15.57;;
65315;SDS011;51920;53.952;10.292;2022-10-31T00:15:36;27.10;;;14.77;;
65315;SDS011;51920;53.952;10.292;2022-10-31T00:18:03;29.50;;;16.17;;
65315;SDS011;51920;53.952;10.292;2022-10-31T00:20:29;31.20;;;15.73;;
65315;SDS011;51920;53.952;10.292;2022-10-31T00:22:59;27.88;;;15.68;;
65315;SDS011;51920;53.952;10.292;2022-10-31T00:25:26;28.17;;;15.52;;
65315;SDS011;51920;53.952;10.292;2022-10-31T00:27:52;28.57;;;15.70;;
65315;SDS011;51920;53.952;10.292;2022-10-31T00:30:17;27.43;;;14.77;;
65315;SDS011;51920;53.952;10.292;2022-10-31T00:32:42;29.13;;;15.27;;
65315;SDS011;51920;53.952;10.292;2022-10-31T00:35:08;29.83;;;15.97;;
65315;SDS011;51920;53.952;10.292;2022-10-31T00:37:33;27.00;;;14.80;;
65315;SDS011;51920;53.952;10.292;2022-10-31T00:39:59;27.63;;;15.80;;
65315;SDS011;51920;53.952;10.292;2022-10-31T00:42:24;27.03;;;14.67;;
65315;SDS011;51920;53.952;10.292;2022-10-31T00:44:49;27.23;;;14.55;;
65315;SDS011;51920;53.952;10.292;2022-10-31T00:47:14;30.03;;;16.40;;
65315;SDS011;51920;53.952;10.292;2022-10-31T00:49:40;32.83;;;16.03;;
65315;SDS011;51920;53.952;10.292;2022-10-31T00:52:06;25.80;;;14.93;;
65315;SDS011;51920;53.952;10.292;2022-10-31T00:54:32;25.77;;;14.50;;
65315;SDS011;51920;53.952;10.292;2022-10-31T00:56:57;30.25;;;15.80;;
65315;SDS011;51920;53.952;10.292;2022-10-31T00:59:23;25.10;;;14.80;;
65315;SDS011;51920;53.952;10.292;2022-10-31T01:01:49;24.92;;;14.65;;
65315;SDS011;51920;53.952;10.292;2022-10-31T01:04:15;26.37;;;15.60;;
65315;SDS011;51920;53.952;10.292;2022-10-31T01:06:40;28.63;;;16.23;;
65315;SDS011;51920;53.952;10.292;2022-10-31T01:09:06;27.23;;;15.00;;
65315;SDS011;51920;53.952;10.292;2022-10-31T01:11:31;25.67;;;15.27;;
65315;SDS011;51920;53.952;10.292;2022-10-31T01:13:56;30.57;;;16.90;;
65315;SDS011;51920;53.952;10.292;2022-10-31T01:16:23;29.87;;;16.43;;
65315;SDS011;51920;53.952;10.292;2022-10-31T01:18:50;27.33;;;15.52;;
65315;SDS011;51920;53.952;10.292;2022-10-31T01:21:17;29.42;;;17.02;;
65315;SDS011;51920;53.952;10.292;2022-10-31T01:23:47;31.08;;;16.80;;
65315;SDS011;51920;53.952;10.292;2022-10-31T01:26:14;27.67;;;15.93;;
65315;SDS011;51920;53.952;10.292;2022-10-31T01:28:52;29.10;;;15.38;;
65315;SDS011;51920;53.952;10.292;2022-10-31T01:31:20;28.75;;;15.50;;
65315;SDS011;51920;53.952;10.292;2022-10-31T01:33:47;26.20;;;15.77;;
65315;SDS011;51920;53.952;10.292;2022-10-31T01:36:18;23.67;;;14.27;;
65315;SDS011;51920;53.952;10.292;2022-10-31T01:38:50;23.77;;;14.35;;
65315;SDS011;51920;53.952;10.292;2022-10-31T01:41:19;30.95;;;17.67;;
65315;SDS011;51920;53.952;10.292;2022-10-31T01:43:57;26.63;;;16.13;;
65315;SDS011;51920;53.952;10.292;2022-10-31T01:46:24;32.85;;;18.63;;
65315;SDS011;51920;53.952;10.292;2022-10-31T01:48:53;29.15;;;17.38;;
65315;SDS011;51920;53.952;10.292;2022-10-31T01:51:20;32.28;;;18.55;;
65315;SDS011;51920;53.952;10.292;2022-10-31T01:53:49;28.83;;;16.92;;
65315;SDS011;51920;53.952;10.292;2022-10-31T01:56:16;28.03;;;17.37;;
65315;SDS011;51920;53.952;10.292;2022-10-31T01:58:43;28.48;;;17.08;;
65315;SDS011;51920;53.952;10.292;2022-10-31T02:01:10;28.60;;;16.80;;
65315;SDS011;51920;53.952;10.292;2022-10-31T02:03:38;30.00;;;17.02;;
65315;SDS011;51920;53.952;10.292;2022-10-31T02:06:03;26.20;;;15.43;;
65315;SDS011;51920;53.952;10.292;2022-10-31T02:08:33;31.60;;;17.88;;
65315;SDS011;51920;53.952;10.292;2022-10-31T02:11:00;26.60;;;16.13;;
65315;SDS011;51920;53.952;10.292;2022-10-31T02:13:27;26.27;;;15.97;;
65315;SDS011;51920;53.952;10.292;2022-10-31T02:15:55;25.08;;;15.05;;
65315;SDS011;51920;53.952;10.292;2022-10-31T02:18:22;31.80;;;17.52;;
65315;SDS011;51920;53.952;10.292;2022-10-31T02:21:01;32.95;;;17.90;;
65315;SDS011;51920;53.952;10.292;2022-10-31T02:23:43;27.05;;;15.60;;
65315;SDS011;51920;53.952;10.292;2022-10-31T02:34:37;38.70;;;20.70;;
65315;SDS011;51920;53.952;10.292;2022-10-31T02:37:48;41.55;;;21.35;;
65315;SDS011;51920;53.952;10.292;2022-10-31T02:40:15;38.92;;;20.80;;
65315;SDS011;51920;53.952;10.292;2022-10-31T02:43:29;33.60;;;18.73;;
65315;SDS011;51920;53.952;10.292;2022-10-31T02:46:07;32.38;;;18.58;;
65315;SDS011;51920;53.952;10.292;2022-10-31T02:48:38;45.20;;;22.35;;
65315;SDS011;51920;53.952;10.292;2022-10-31T02:51:06;43.15;;;21.75;;
65315;SDS011;51920;53.952;10.292;2022-10-31T02:53:35;48.08;;;22.88;;
65315;SDS011;51920;53.952;10.292;2022-10-31T02:56:05;70.57;;;27.33;;
65315;SDS011;51920;53.952;10.292;2022-10-31T02:58:37;62.53;;;25.55;;
65315;SDS011;51920;53.952;10.292;2022-10-31T03:15:32;78.32;;;28.67;;
65315;SDS011;51920;53.952;10.292;2022-10-31T03:18:08;84.28;;;28.80;;
65315;SDS011;51920;53.952;10.292;2022-10-31T03:21:00;75.50;;;27.27;;
65315;SDS011;51920;53.952;10.292;2022-10-31T03:23:34;64.27;;;25.77;;
65315;SDS011;51920;53.952;10.292;2022-10-31T03:26:03;61.20;;;24.30;;
65315;SDS011;51920;53.952;10.292;2022-10-31T03:28:33;66.90;;;26.35;;
65315;SDS011;51920;53.952;10.292;2022-10-31T03:31:03;75.93;;;26.83;;
65315;SDS011;51920;53.952;10.292;2022-10-31T03:33:31;65.22;;;25.13;;
65315;SDS011;51920;53.952;10.292;2022-10-31T03:36:00;73.27;;;23.93;;
65315;SDS011;51920;53.952;10.292;2022-10-31T03:38:29;64.22;;;24.98;;
65315;SDS011;51920;53.952;10.292;2022-10-31T03:40:55;63.47;;;24.63;;
65315;SDS011;51920;53.952;10.292;2022-10-31T03:43:26;63.80;;;23.55;;
65315;SDS011;51920;53.952;10.292;2022-10-31T03:45:57;56.95;;;23.15;;
65315;SDS011;51920;53.952;10.292;2022-10-31T03:48:23;71.93;;;26.20;;
65315;SDS011;51920;53.952;10.292;2022-10-31T03:53:24;63.28;;;25.23;;
65315;SDS011;51920;53.952;10.292;2022-10-31T03:55:58;103.50;;;28.75;;
65315;SDS011;51920;53.952;10.292;2022-10-31T03:58:34;59.97;;;23.27;;
65315;SDS011;51920;53.952;10.292;2022-10-31T04:01:05;60.73;;;24.60;;
65315;SDS011;51920;53.952;10.292;2022-10-31T04:03:36;57.70;;;22.52;;
65315;SDS011;51920;53.952;10.292;2022-10-31T04:06:05;57.42;;;23.48;;
65315;SDS011;51920;53.952;10.292;2022-10-31T04:08:37;66.00;;;25.50;;
65315;SDS011;51920;53.952;10.292;2022-10-31T04:11:08;66.93;;;25.95;;
65315;SDS011;51920;53.952;10.292;2022-10-31T04:13:39;74.00;;;26.87;;
65315;SDS011;51920;53.952;10.292;2022-10-31T04:16:12;72.57;;;25.83;;
65315;SDS011;51920;53.952;10.292;2022-10-31T04:18:39;62.00;;;24.80;;
65315;SDS011;51920;53.952;10.292;2022-10-31T04:21:05;70.97;;;26.50;;
65315;SDS011;51920;53.952;10.292;2022-10-31T04:23:32;65.82;;;24.80;;
65315;SDS011;51920;53.952;10.292;2022-10-31T04:26:03;59.28;;;23.33;;
65315;SDS011;51920;53.952;10.292;2022-10-31T04:28:28;56.90;;;22.73;;
65315;SDS011;51920;53.952;10.292;2022-10-31T04:30:54;59.17;;;23.13;;
65315;SDS011;51920;53.952;10.292;2022-10-31T04:33:21;54.83;;;22.25;;
65315;SDS011;51920;53.952;10.292;2022-10-31T04:35:46;54.60;;;21.27;;
65315;SDS011;51920;53.952;10.292;2022-10-31T04:38:12;49.40;;;21.00;;
65315;SDS011;51920;53.952;10.292;2022-10-31T04:40:38;45.90;;;18.97;;
65315;SDS011;51920;53.952;10.292;2022-10-31T04:43:29;57.40;;;22.65;;
65315;SDS011;51920;53.952;10.292;2022-10-31T04:45:55;61.03;;;23.67;;
65315;SDS011;51920;53.952;10.292;2022-10-31T04:48:21;58.85;;;23.60;;
65315;SDS011;51920;53.952;10.292;2022-10-31T04:50:46;53.27;;;21.30;;
65315;SDS011;51920;53.952;10.292;2022-10-31T04:53:13;49.33;;;20.52;;
65315;SDS011;51920;53.952;10.292;2022-10-31T04:55:58;49.13;;;20.20;;
65315;SDS011;51920;53.952;10.292;2022-10-31T04:58:36;52.30;;;22.38;;
65315;SDS011;51920;53.952;10.292;2022-10-31T05:01:05;45.78;;;20.85;;
65315;SDS011;51920;53.952;10.292;2022-10-31T05:03:31;44.07;;;18.97;;
65315;SDS011;51920;53.952;10.292;2022-10-31T05:05:57;42.03;;;18.42;;
65315;SDS011;51920;53.952;10.292;2022-10-31T05:08:22;45.90;;;19.47;;
65315;SDS011;51920;53.952;10.292;2022-10-31T05:10:50;40.08;;;17.85;;
65315;SDS011;51920;53.952;10.292;2022-10-31T05:13:16;56.65;;;22.38;;
65315;SDS011;51920;53.952;10.292;2022-10-31T05:16:08;45.60;;;18.83;;
65315;SDS011;51920;53.952;10.292;2022-10-31T05:19:03;42.30;;;18.15;;
65315;SDS011;51920;53.952;10.292;2022-10-31T05:21:47;43.15;;;18.20;;
65315;SDS011;51920;53.952;10.292;2022-10-31T05:24:12;44.30;;;18.23;;
65315;SDS011;51920;53.952;10.292;2022-10-31T05:26:39;41.00;;;18.88;;
65315;SDS011;51920;53.952;10.292;2022-10-31T05:29:05;50.13;;;20.30;;
65315;SDS011;51920;53.952;10.292;2022-10-31T05:31:30;49.80;;;20.47;;
65315;SDS011;51920;53.952;10.292;2022-10-31T05:33:56;45.00;;;18.80;;
65315;SDS011;51920;53.952;10.292;2022-10-31T05:36:39;47.08;;;18.83;;
65315;SDS011;51920;53.952;10.292;2022-10-31T05:39:11;38.17;;;17.00;;
65315;SDS011;51920;53.952;10.292;2022-10-31T05:41:41;41.63;;;17.55;;
65315;SDS011;51920;53.952;10.292;2022-10-31T05:44:13;32.55;;;15.40;;
65315;SDS011;51920;53.952;10.292;2022-10-31T05:46:50;35.55;;;16.42;;
65315;SDS011;51920;53.952;10.292;2022-10-31T05:49:34;34.83;;;16.60;;
65315;SDS011;51920;53.952;10.292;2022-10-31T05:52:21;34.53;;;15.03;;
65315;SDS011;51920;53.952;10.292;2022-10-31T05:54:53;33.13;;;16.20;;
65315;SDS011;51920;53.952;10.292;2022-10-31T05:57:19;33.10;;;15.53;;
65315;SDS011;51920;53.952;10.292;2022-10-31T05:59:44;35.15;;;16.00;;
65315;SDS011;51920;53.952;10.292;2022-10-31T06:02:10;44.83;;;18.27;;
65315;SDS011;51920;53.952;10.292;2022-10-31T06:04:54;44.75;;;18.40;;
65315;SDS011;51920;53.952;10.292;2022-10-31T06:07:19;45.70;;;17.33;;
65315;SDS011;51920;53.952;10.292;2022-10-31T06:09:44;46.17;;;18.63;;
65315;SDS011;51920;53.952;10.292;2022-10-31T06:12:10;48.67;;;18.93;;
65315;SDS011;51920;53.952;10.292;2022-10-31T06:14:58;52.42;;;18.85;;
65315;SDS011;51920;53.952;10.292;2022-10-31T06:17:23;42.40;;;16.57;;
65315;SDS011;51920;53.952;10.292;2022-10-31T06:20:09;38.55;;;16.42;;
65315;SDS011;51920;53.952;10.292;2022-10-31T06:22:41;38.38;;;15.38;;
65315;SDS011;51920;53.952;10.292;2022-10-31T06:25:07;41.47;;;16.47;;
65315;SDS011;51920;53.952;10.292;2022-10-31T06:27:35;47.58;;;18.95;;
65315;SDS011;51920;53.952;10.292;2022-10-31T06:30:08;55.65;;;20.25;;
65315;SDS011;51920;53.952;10.292;2022-10-31T06:32:35;51.47;;;19.27;;
65315;SDS011;51920;53.952;10.292;2022-10-31T06:35:01;44.40;;;16.77;;
65315;SDS011;51920;53.952;10.292;2022-10-31T06:37:27;42.20;;;17.83;;
65315;SDS011;51920;53.952;10.292;2022-10-31T06:39:59;50.23;;;19.33;;
65315;SDS011;51920;53.952;10.292;2022-10-31T06:42:24;46.05;;;18.80;;
65315;SDS011;51920;53.952;10.292;2022-10-31T06:44:50;50.13;;;19.47;;
65315;SDS011;51920;53.952;10.292;2022-10-31T06:47:53;49.28;;;18.30;;
65315;SDS011;51920;53.952;10.292;2022-10-31T06:50:24;46.80;;;17.53;;
65315;SDS011;51920;53.952;10.292;2022-10-31T06:52:55;46.45;;;16.63;;
65315;SDS011;51920;53.952;10.292;2022-10-31T06:55:22;65.03;;;19.70;;
65315;SDS011;51920;53.952;10.292;2022-10-31T06:57:50;61.15;;;19.17;;
65315;SDS011;51920;53.952;10.292;2022-10-31T07:00:17;47.58;;;17.27;;
65315;SDS011;51920;53.952;10.292;2022-10-31T07:02:53;48.00;;;16.73;;
65315;SDS011;51920;53.952;10.292;2022-10-31T07:05:21;58.90;;;19.30;;
65315;SDS011;51920;53.952;10.292;2022-10-31T07:07:47;55.22;;;19.60;;
65315;SDS011;51920;53.952;10.292;2022-10-31T07:10:12;53.77;;;19.00;;
65315;SDS011;51920;53.952;10.292;2022-10-31T07:12:57;50.05;;;18.80;;
65315;SDS011;51920;53.952;10.292;2022-10-31T07:15:24;45.90;;;17.27;;
65315;SDS011;51920;53.952;10.292;2022-10-31T07:17:51;41.07;;;15.87;;
65315;SDS011;51920;53.952;10.292;2022-10-31T07:20:17;43.58;;;17.27;;
65315;SDS011;51920;53.952;10.292;2022-10-31T07:22:43;46.40;;;18.50;;
65315;SDS011;51920;53.952;10.292;2022-10-31T07:25:09;46.10;;;18.37;;
65315;SDS011;51920;53.952;10.292;2022-10-31T07:27:54;48.08;;;17.65;;
65315;SDS011;51920;53.952;10.292;2022-10-31T07:30:20;41.60;;;16.02;;
65315;SDS011;51920;53.952;10.292;2022-10-31T07:32:49;38.00;;;14.95;;
65315;SDS011;51920;53.952;10.292;2022-10-31T07:35:21;45.85;;;16.80;;
65315;SDS011;51920;53.952;10.292;2022-10-31T07:37:55;40.13;;;15.60;;
65315;SDS011;51920;53.952;10.292;2022-10-31T07:40:21;40.88;;;15.65;;
65315;SDS011;51920;53.952;10.292;2022-10-31T07:42:48;46.90;;;16.35;;
65315;SDS011;51920;53.952;10.292;2022-10-31T07:45:55;44.90;;;15.70;;
65315;SDS011;51920;53.952;10.292;2022-10-31T07:48:38;39.90;;;14.02;;
65315;SDS011;51920;53.952;10.292;2022-10-31T07:51:22;37.50;;;13.10;;
65315;SDS011;51920;53.952;10.292;2022-10-31T07:54:07;36.40;;;12.82;;
65315;SDS011;51920;53.952;10.292;2022-10-31T07:56:33;41.23;;;13.83;;
65315;SDS011;51920;53.952;10.292;2022-10-31T07:58:58;38.25;;;12.90;;
65315;SDS011;51920;53.952;10.292;2022-10-31T08:01:24;35.07;;;12.53;;
65315;SDS011;51920;53.952;10.292;2022-10-31T08:04:09;35.85;;;12.88;;
65315;SDS011;51920;53.952;10.292;2022-10-31T08:06:53;38.88;;;12.55;;
65315;SDS011;51920;53.952;10.292;2022-10-31T08:09:26;38.43;;;12.73;;
65315;SDS011;51920;53.952;10.292;2022-10-31T08:11:53;40.65;;;12.23;;
65315;SDS011;51920;53.952;10.292;2022-10-31T08:14:18;30.55;;;11.38;;
65315;SDS011;51920;53.952;10.292;2022-10-31T08:16:44;38.83;;;12.23;;
65315;SDS011;51920;53.952;10.292;2022-10-31T08:19:11;38.97;;;11.93;;
65315;SDS011;51920;53.952;10.292;2022-10-31T08:21:37;36.72;;;11.43;;
65315;SDS011;51920;53.952;10.292;2022-10-31T08:24:04;37.00;;;11.97;;
65315;SDS011;51920;53.952;10.292;2022-10-31T08:26:30;41.30;;;12.40;;
65315;SDS011;51920;53.952;10.292;2022-10-31T08:28:56;34.58;;;11.20;;
65315;SDS011;51920;53.952;10.292;2022-10-31T08:31:24;30.55;;;10.25;;
65315;SDS011;51920;53.952;10.292;2022-10-31T08:34:31;31.50;;;11.38;;
65315;SDS011;51920;53.952;10.292;2022-10-31T08:37:34;27.73;;;10.03;;
65315;SDS011;51920;53.952;10.292;2022-10-31T08:40:01;30.85;;;10.63;;
65315;SDS011;51920;53.952;10.292;2022-10-31T08:42:32;29.27;;;10.43;;
65315;SDS011;51920;53.952;10.292;2022-10-31T08:44:58;31.33;;;10.37;;
65315;SDS011;51920;53.952;10.292;2022-10-31T08:47:23;27.97;;;10.17;;
65315;SDS011;51920;53.952;10.292;2022-10-31T08:49:48;28.83;;;11.33;;
65315;SDS011;51920;53.952;10.292;2022-10-31T08:52:14;24.03;;;9.27;;
65315;SDS011;51920;53.952;10.292;2022-10-31T08:54:41;32.00;;;10.77;;
65315;SDS011;51920;53.952;10.292;2022-10-31T08:57:25;32.95;;;11.65;;
65315;SDS011;51920;53.952;10.292;2022-10-31T08:59:51;29.40;;;11.47;;
65315;SDS011;51920;53.952;10.292;2022-10-31T09:02:25;31.48;;;11.10;;
65315;SDS011;51920;53.952;10.292;2022-10-31T09:04:56;28.30;;;10.20;;
65315;SDS011;51920;53.952;10.292;2022-10-31T09:07:21;30.13;;;11.63;;
65315;SDS011;51920;53.952;10.292;2022-10-31T09:09:46;30.73;;;11.50;;
65315;SDS011;51920;53.952;10.292;2022-10-31T09:12:12;30.50;;;11.30;;
65315;SDS011;51920;53.952;10.292;2022-10-31T09:15:06;28.88;;;11.57;;
65315;SDS011;51920;53.952;10.292;2022-10-31T09:17:56;26.20;;;11.43;;
65315;SDS011;51920;53.952;10.292;2022-10-31T09:20:50;30.05;;;11.40;;
65315;SDS011;51920;53.952;10.292;2022-10-31T09:23:17;36.63;;;12.83;;
65315;SDS011;51920;53.952;10.292;2022-10-31T09:25:44;29.08;;;11.43;;
65315;SDS011;51920;53.952;10.292;2022-10-31T09:28:33;26.77;;;11.23;;
65315;SDS011;51920;53.952;10.292;2022-10-31T09:31:07;32.30;;;11.93;;
65315;SDS011;51920;53.952;10.292;2022-10-31T09:33:53;31.98;;;11.85;;
65315;SDS011;51920;53.952;10.292;2022-10-31T09:36:34;34.53;;;12.30;;
65315;SDS011;51920;53.952;10.292;2022-10-31T09:39:02;33.92;;;13.20;;
65315;SDS011;51920;53.952;10.292;2022-10-31T09:44:22;27.63;;;11.10;;
65315;SDS011;51920;53.952;10.292;2022-10-31T09:50:15;29.97;;;11.30;;
65315;SDS011;51920;53.952;10.292;2022-10-31T09:52:48;31.88;;;12.38;;
65315;SDS011;51920;53.952;10.292;2022-10-31T09:55:41;34.30;;;13.32;;
65315;SDS011;51920;53.952;10.292;2022-10-31T09:58:18;32.50;;;13.05;;
65315;SDS011;51920;53.952;10.292;2022-10-31T10:00:47;37.95;;;13.88;;
65315;SDS011;51920;53.952;10.292;2022-10-31T10:03:26;31.57;;;12.13;;
65315;SDS011;51920;53.952;10.292;2022-10-31T10:06:04;33.22;;;12.73;;
65315;SDS011;51920;53.952;10.292;2022-10-31T10:08:51;30.88;;;11.77;;
65315;SDS011;51920;53.952;10.292;2022-10-31T10:11:48;30.80;;;12.03;;
65315;SDS011;51920;53.952;10.292;2022-10-31T10:30:30;38.15;;;13.73;;
65315;SDS011;51920;53.952;10.292;2022-10-31T10:33:05;36.75;;;13.65;;
65315;SDS011;51920;53.952;10.292;2022-10-31T10:35:43;33.10;;;12.80;;
65315;SDS011;51920;53.952;10.292;2022-10-31T10:38:25;36.60;;;13.97;;
65315;SDS011;51920;53.952;10.292;2022-10-31T10:40:54;35.20;;;13.07;;
65315;SDS011;51920;53.952;10.292;2022-10-31T10:43:21;28.77;;;12.15;;
65315;SDS011;51920;53.952;10.292;2022-10-31T10:51:46;24.73;;;9.93;;
65315;SDS011;51920;53.952;10.292;2022-10-31T10:57:20;25.27;;;10.48;;
65315;SDS011;51920;53.952;10.292;2022-10-31T10:59:52;21.73;;;10.93;;
65315;SDS011;51920;53.952;10.292;2022-10-31T11:02:19;22.17;;;9.40;;
65315;SDS011;51920;53.952;10.292;2022-10-31T11:05:00;22.13;;;8.30;;
65315;SDS011;51920;53.952;10.292;2022-10-31T11:07:36;24.85;;;9.40;;
65315;SDS011;51920;53.952;10.292;2022-10-31T11:10:04;25.07;;;9.57;;
65315;SDS011;51920;53.952;10.292;2022-10-31T11:12:38;26.27;;;10.10;;
65315;SDS011;51920;53.952;10.292;2022-10-31T11:15:15;21.48;;;9.07;;
65315;SDS011;51920;53.952;10.292;2022-10-31T11:17:47;23.50;;;8.90;;
65315;SDS011;51920;53.952;10.292;2022-10-31T11:22:40;23.97;;;9.47;;
65315;SDS011;51920;53.952;10.292;2022-10-31T11:27:47;19.90;;;7.88;;
65315;SDS011;51920;53.952;10.292;2022-10-31T11:30:23;19.33;;;7.90;;
65315;SDS011;51920;53.952;10.292;2022-10-31T11:32:49;20.27;;;8.00;;
65315;SDS011;51920;53.952;10.292;2022-10-31T11:35:19;21.55;;;8.38;;
65315;SDS011;51920;53.952;10.292;2022-10-31T11:37:48;20.70;;;8.43;;
65315;SDS011;51920;53.952;10.292;2022-10-31T11:40:16;21.50;;;7.82;;
65315;SDS011;51920;53.952;10.292;2022-10-31T11:42:44;19.17;;;7.93;;
65315;SDS011;51920;53.952;10.292;2022-10-31T11:45:14;18.08;;;7.72;;
65315;SDS011;51920;53.952;10.292;2022-10-31T11:47:59;18.88;;;7.43;;
65315;SDS011;51920;53.952;10.292;2022-10-31T11:50:36;15.57;;;6.82;;
65315;SDS011;51920;53.952;10.292;2022-10-31T11:53:09;17.00;;;6.85;;
65315;SDS011;51920;53.952;10.292;2022-10-31T11:55:39;17.50;;;7.03;;
65315;SDS011;51920;53.952;10.292;2022-10-31T11:58:20;17.70;;;7.53;;
65315;SDS011;51920;53.952;10.292;2022-10-31T12:00:48;20.38;;;8.00;;
65315;SDS011;51920;53.952;10.292;2022-10-31T12:03:23;17.45;;;7.45;;
65315;SDS011;51920;53.952;10.292;2022-10-31T12:08:47;19.37;;;8.40;;
65315;SDS011;51920;53.952;10.292;2022-10-31T12:25:17;18.27;;;7.78;;
65315;SDS011;51920;53.952;10.292;2022-10-31T12:41:45;16.85;;;7.20;;
65315;SDS011;51920;53.952;10.292;2022-10-31T12:52:33;17.20;;;7.25;;
65315;SDS011;51920;53.952;10.292;2022-10-31T12:57:45;18.33;;;7.90;;
65315;SDS011;51920;53.952;10.292;2022-10-31T13:00:16;19.90;;;8.40;;
65315;SDS011;51920;53.952;10.292;2022-10-31T13:05:29;17.00;;;7.80;;
65315;SDS011;51920;53.952;10.292;2022-10-31T13:07:58;18.25;;;7.82;;
65315;SDS011;51920;53.952;10.292;2022-10-31T13:10:33;17.20;;;8.13;;
65315;SDS011;51920;53.952;10.292;2022-10-31T13:13:13;16.40;;;7.43;;
65315;SDS011;51920;53.952;10.292;2022-10-31T13:18:39;16.55;;;7.72;;
65315;SDS011;51920;53.952;10.292;2022-10-31T13:21:12;19.73;;;9.18;;
65315;SDS011;51920;53.952;10.292;2022-10-31T13:23:43;20.70;;;8.75;;
65315;SDS011;51920;53.952;10.292;2022-10-31T13:26:16;18.83;;;8.60;;
65315;SDS011;51920;53.952;10.292;2022-10-31T13:28:52;17.75;;;8.15;;
65315;SDS011;51920;53.952;10.292;2022-10-31T13:31:25;17.00;;;7.68;;
65315;SDS011;51920;53.952;10.292;2022-10-31T13:38:59;16.45;;;8.02;;
65315;SDS011;51920;53.952;10.292;2022-10-31T13:41:40;19.38;;;8.95;;
65315;SDS011;51920;53.952;10.292;2022-10-31T13:46:52;18.10;;;7.88;;
65315;SDS011;51920;53.952;10.292;2022-10-31T13:49:23;14.75;;;7.50;;
65315;SDS011;51920;53.952;10.292;2022-10-31T13:54:36;13.70;;;6.70;;
65315;SDS011;51920;53.952;10.292;2022-10-31T13:57:06;15.40;;;7.50;;
65315;SDS011;51920;53.952;10.292;2022-10-31T13:59:45;16.20;;;7.45;;
65315;SDS011;51920;53.952;10.292;2022-10-31T14:02:15;16.30;;;7.22;;
65315;SDS011;51920;53.952;10.292;2022-10-31T14:04:56;14.55;;;6.93;;
65315;SDS011;51920;53.952;10.292;2022-10-31T14:07:25;15.88;;;7.85;;
65315;SDS011;51920;53.952;10.292;2022-10-31T14:12:53;15.65;;;8.57;;
65315;SDS011;51920;53.952;10.292;2022-10-31T14:15:58;15.50;;;7.28;;
65315;SDS011;51920;53.952;10.292;2022-10-31T14:18:30;14.13;;;6.70;;
65315;SDS011;51920;53.952;10.292;2022-10-31T14:20:56;14.50;;;6.93;;
65315;SDS011;51920;53.952;10.292;2022-10-31T14:23:32;15.07;;;7.13;;
65315;SDS011;51920;53.952;10.292;2022-10-31T14:28:44;14.47;;;7.00;;
65315;SDS011;51920;53.952;10.292;2022-10-31T14:34:29;81.40;;;23.77;;
65315;SDS011;51920;53.952;10.292;2022-10-31T14:39:40;28.58;;;12.27;;
65315;SDS011;51920;53.952;10.292;2022-10-31T14:51:36;18.48;;;7.60;;
65315;SDS011;51920;53.952;10.292;2022-10-31T14:54:05;16.15;;;8.38;;
65315;SDS011;51920;53.952;10.292;2022-10-31T14:56:33;20.43;;;12.10;;
65315;SDS011;51920;53.952;10.292;2022-10-31T14:59:02;17.42;;;8.73;;
65315;SDS011;51920;53.952;10.292;2022-10-31T15:01:34;19.70;;;11.50;;
65315;SDS011;51920;53.952;10.292;2022-10-31T15:06:51;17.73;;;7.75;;
65315;SDS011;51920;53.952;10.292;2022-10-31T15:09:21;17.17;;;8.07;;
65315;SDS011;51920;53.952;10.292;2022-10-31T15:11:48;16.88;;;8.10;;
65315;SDS011;51920;53.952;10.292;2022-10-31T15:14:21;17.93;;;9.40;;
65315;SDS011;51920;53.952;10.292;2022-10-31T15:16:48;16.58;;;8.98;;
65315;SDS011;51920;53.952;10.292;2022-10-31T15:19:15;20.13;;;9.37;;
65315;SDS011;51920;53.952;10.292;2022-10-31T15:21:45;17.30;;;8.90;;
65315;SDS011;51920;53.952;10.292;2022-10-31T15:24:11;16.73;;;8.48;;
65315;SDS011;51920;53.952;10.292;2022-10-31T15:26:50;20.02;;;8.88;;
65315;SDS011;51920;53.952;10.292;2022-10-31T15:29:18;16.98;;;8.73;;
65315;SDS011;51920;53.952;10.292;2022-10-31T15:34:59;18.55;;;8.90;;
65315;SDS011;51920;53.952;10.292;2022-10-31T15:37:10;22.48;;;10.52;;
65315;SDS011;51920;53.952;10.292;2022-10-31T15:39:38;23.60;;;9.63;;
65315;SDS011;51920;53.952;10.292;2022-10-31T15:42:04;19.00;;;8.82;;
65315;SDS011;51920;53.952;10.292;2022-10-31T15:45:01;19.50;;;10.60;;
65315;SDS011;51920;53.952;10.292;2022-10-31T15:47:30;23.17;;;11.98;;
65315;SDS011;51920;53.952;10.292;2022-10-31T15:49:58;19.23;;;9.68;;
65315;SDS011;51920;53.952;10.292;2022-10-31T15:52:41;18.95;;;9.65;;
65315;SDS011;51920;53.952;10.292;2022-10-31T15:57:38;19.20;;;9.73;;
65315;SDS011;51920;53.952;10.292;2022-10-31T16:00:05;17.95;;;9.10;;
65315;SDS011;51920;53.952;10.292;2022-10-31T16:02:31;15.83;;;8.73;;
65315;SDS011;51920;53.952;10.292;2022-10-31T16:05:00;17.23;;;9.07;;
65315;SDS011;51920;53.952;10.292;2022-10-31T16:07:26;20.87;;;10.90;;
65315;SDS011;51920;53.952;10.292;2022-10-31T16:09:54;18.85;;;10.75;;
65315;SDS011;51920;53.952;10.292;2022-10-31T16:12:21;16.90;;;9.75;;
65315;SDS011;51920;53.952;10.292;2022-10-31T16:14:47;19.90;;;9.35;;
65315;SDS011;51920;53.952;10.292;2022-10-31T16:17:14;18.70;;;9.73;;
65315;SDS011;51920;53.952;10.292;2022-10-31T16:19:52;18.27;;;9.27;;
65315;SDS011;51920;53.952;10.292;2022-10-31T16:22:31;17.50;;;8.85;;
65315;SDS011;51920;53.952;10.292;2022-10-31T16:27:39;20.55;;;10.25;;
65315;SDS011;51920;53.952;10.292;2022-10-31T16:32:57;18.47;;;9.33;;
65315;SDS011;51920;53.952;10.292;2022-10-31T16:35:41;20.35;;;9.50;;
65315;SDS011;51920;53.952;10.292;2022-10-31T16:38:07;18.75;;;9.05;;
65315;SDS011;51920;53.952;10.292;2022-10-31T16:40:34;20.48;;;9.48;;
65315;SDS011;51920;53.952;10.292;2022-10-31T16:43:02;20.17;;;9.77;;
65315;SDS011;51920;53.952;10.292;2022-10-31T16:45:29;19.23;;;9.77;;
65315;SDS011;51920;53.952;10.292;2022-10-31T16:48:01;21.77;;;10.15;;
65315;SDS011;51920;53.952;10.292;2022-10-31T16:50:31;21.03;;;10.30;;
65315;SDS011;51920;53.952;10.292;2022-10-31T16:52:57;20.27;;;10.52;;
65315;SDS011;51920;53.952;10.292;2022-10-31T16:55:22;25.17;;;11.43;;
65315;SDS011;51920;53.952;10.292;2022-10-31T16:57:56;20.52;;;10.73;;
65315;SDS011;51920;53.952;10.292;2022-10-31T17:00:24;20.80;;;11.90;;
65315;SDS011;51920;53.952;10.292;2022-10-31T17:02:52;20.08;;;11.60;;
65315;SDS011;51920;53.952;10.292;2022-10-31T17:05:20;45.63;;;18.05;;
65315;SDS011;51920;53.952;10.292;2022-10-31T17:07:46;55.03;;;21.88;;
65315;SDS011;51920;53.952;10.292;2022-10-31T17:10:13;128.00;;;37.67;;